sensor_id;sensor_type;location;lat;lon;timestamp;temperature;humidity
45115;DHT22;30877;43.706;10.780;2023-01-19T00:00:56;7.60;96.70
45115;DHT22;30877;43.706;10.780;2023-01-19T00:03:24;7.50;96.70
45115;DHT22;30877;43.706;10.780;2023-01-19T00:05:52;7.40;96.70
45115;DHT22;30877;43.706;10.780;2023-01-19T00:08:20;7.30;96.70
45115;DHT22;30877;43.706;10.780;2023-01-19T00:10:49;7.30;96.70
45115;DHT22;30877;43.706;10.780;2023-01-19T00:13:22;7.30;96.70
45115;DHT22;30877;43.706;10.780;2023-01-19T00:15:50;7.30;96.70
45115;DHT22;30877;43.706;10.780;2023-01-19T00:18:18;7.20;96.70
45115;DHT22;30877;43.706;10.780;2023-01-19T00:20:47;7.20;96.70
45115;DHT22;30877;43.706;10.780;2023-01-19T00:23:15;7.20;96.70
45115;DHT22;30877;43.706;10.780;2023-01-19T00:25:43;7.20;96.70
45115;DHT22;30877;43.706;10.780;2023-01-19T00:28:13;7.30;96.70
45115;DHT22;30877;43.706;10.780;2023-01-19T00:30:44;7.30;96.70
45115;DHT22;30877;43.706;10.780;2023-01-19T00:33:12;7.30;96.70
45115;DHT22;30877;43.706;10.780;2023-01-19T00:35:43;7.30;96.70
45115;DHT22;30877;43.706;10.780;2023-01-19T00:38:11;7.30;96.70
45115;DHT22;30877;43.706;10.780;2023-01-19T00:40:39;7.40;96.70
45115;DHT22;30877;43.706;10.780;2023-01-19T00:43:08;7.40;96.70
45115;DHT22;30877;43.706;10.780;2023-01-19T00:45:36;7.40;96.70
45115;DHT22;30877;43.706;10.780;2023-01-19T00:48:06;7.50;96.70
45115;DHT22;30877;43.706;10.780;2023-01-19T00:50:34;7.50;96.70
45115;DHT22;30877;43.706;10.780;2023-01-19T00:53:02;7.50;96.70
45115;DHT22;30877;43.706;10.780;2023-01-19T00:55:31;7.40;96.70
45115;DHT22;30877;43.706;10.780;2023-01-19T00:58:00;7.40;96.70
45115;DHT22;30877;43.706;10.780;2023-01-19T01:00:29;7.40;96.70
45115;DHT22;30877;43.706;10.780;2023-01-19T01:02:57;7.40;96.70
45115;DHT22;30877;43.706;10.780;2023-01-19T01:05:28;7.30;96.70
45115;DHT22;30877;43.706;10.780;2023-01-19T01:07:56;7.20;96.70
45115;DHT22;30877;43.706;10.780;2023-01-19T01:10:25;7.20;96.70
45115;DHT22;30877;43.706;10.780;2023-01-19T01:12:54;7.10;96.70
45115;DHT22;30877;43.706;10.780;2023-01-19T01:15:42;7.20;96.70
45115;DHT22;30877;43.706;10.780;2023-01-19T01:18:10;7.30;96.70
45115;DHT22;30877;43.706;10.780;2023-01-19T01:20:40;7.30;96.70
45115;DHT22;30877;43.706;10.780;2023-01-19T01:23:08;7.30;96.70
45115;DHT22;30877;43.706;10.780;2023-01-19T01:25:37;7.30;96.70
45115;DHT22;30877;43.706;10.780;2023-01-19T01:28:06;7.30;96.70
45115;DHT22;30877;43.706;10.780;2023-01-19T01:30:35;7.40;96.70
45115;DHT22;30877;43.706;10.780;2023-01-19T01:33:07;7.40;96.70
45115;DHT22;30877;43.706;10.780;2023-01-19T01:35:35;7.40;96.70
45115;DHT22;30877;43.706;10.780;2023-01-19T01:38:05;7.30;96.70
45115;DHT22;30877;43.706;10.780;2023-01-19T01:40:33;7.40;96.70
45115;DHT22;30877;43.706;10.780;2023-01-19T01:43:01;7.40;96.70
45115;DHT22;30877;43.706;10.780;2023-01-19T01:45:32;7.40;96.70
45115;DHT22;30877;43.706;10.780;2023-01-19T01:48:07;7.50;96.70
45115;DHT22;30877;43.706;10.780;2023-01-19T01:50:39;7.40;96.70
45115;DHT22;30877;43.706;10.780;2023-01-19T01:53:32;7.40;96.70
45115;DHT22;30877;43.706;10.780;2023-01-19T01:56:03;7.50;96.70
45115;DHT22;30877;43.706;10.780;2023-01-19T01:58:33;7.40;96.70
45115;DHT22;30877;43.706;10.780;2023-01-19T02:01:03;7.50;96.70
45115;DHT22;30877;43.706;10.780;2023-01-19T02:03:51;7.50;96.70
45115;DHT22;30877;43.706;10.780;2023-01-19T02:06:19;7.50;96.70
45115;DHT22;30877;43.706;10.780;2023-01-19T02:08:53;7.50;96.70
45115;DHT22;30877;43.706;10.780;2023-01-19T02:11:42;7.40;96.70
45115;DHT22;30877;43.706;10.780;2023-01-19T02:14:29;7.40;96.70
45115;DHT22;30877;43.706;10.780;2023-01-19T02:16:57;7.40;96.70
45115;DHT22;30877;43.706;10.780;2023-01-19T02:19:32;7.30;96.70
45115;DHT22;30877;43.706;10.780;2023-01-19T02:22:04;7.30;96.70
45115;DHT22;30877;43.706;10.780;2023-01-19T02:24:38;7.10;96.70
45115;DHT22;30877;43.706;10.780;2023-01-19T02:27:07;7.10;96.70
45115;DHT22;30877;43.706;10.780;2023-01-19T02:29:37;7.20;96.70
45115;DHT22;30877;43.706;10.780;2023-01-19T02:32:05;7.20;96.70
45115;DHT22;30877;43.706;10.780;2023-01-19T02:34:34;7.20;96.70
45115;DHT22;30877;43.706;10.780;2023-01-19T02:37:05;7.10;96.70
45115;DHT22;30877;43.706;10.780;2023-01-19T02:39:38;7.10;96.70
45115;DHT22;30877;43.706;10.780;2023-01-19T02:42:12;7.20;96.70
45115;DHT22;30877;43.706;10.780;2023-01-19T02:44:44;7.20;96.70
45115;DHT22;30877;43.706;10.780;2023-01-19T02:47:14;7.20;96.70
45115;DHT22;30877;43.706;10.780;2023-01-19T02:49:43;7.30;96.70
45115;DHT22;30877;43.706;10.780;2023-01-19T02:52:15;7.30;96.70
45115;DHT22;30877;43.706;10.780;2023-01-19T02:54:56;7.30;96.70
45115;DHT22;30877;43.706;10.780;2023-01-19T02:57:46;7.20;96.70
45115;DHT22;30877;43.706;10.780;2023-01-19T03:00:27;7.20;96.70
45115;DHT22;30877;43.706;10.780;2023-01-19T03:03:12;7.20;96.70
45115;DHT22;30877;43.706;10.780;2023-01-19T03:05:53;7.10;96.70
45115;DHT22;30877;43.706;10.780;2023-01-19T03:08:31;6.90;96.70
45115;DHT22;30877;43.706;10.780;2023-01-19T03:11:04;6.70;96.70
45115;DHT22;30877;43.706;10.780;2023-01-19T03:13:41;6.70;96.70
45115;DHT22;30877;43.706;10.780;2023-01-19T03:16:17;6.80;96.70
45115;DHT22;30877;43.706;10.780;2023-01-19T03:18:52;6.90;96.70
45115;DHT22;30877;43.706;10.780;2023-01-19T03:21:23;6.90;96.70
45115;DHT22;30877;43.706;10.780;2023-01-19T03:23:57;6.90;96.70
45115;DHT22;30877;43.706;10.780;2023-01-19T03:26:35;7.00;96.70
45115;DHT22;30877;43.706;10.780;2023-01-19T03:29:05;7.00;96.70
45115;DHT22;30877;43.706;10.780;2023-01-19T03:31:36;7.00;96.70
45115;DHT22;30877;43.706;10.780;2023-01-19T03:34:08;7.00;96.70
45115;DHT22;30877;43.706;10.780;2023-01-19T03:36:41;7.00;96.70
45115;DHT22;30877;43.706;10.780;2023-01-19T03:39:13;6.90;96.70
45115;DHT22;30877;43.706;10.780;2023-01-19T03:41:47;6.80;96.70
45115;DHT22;30877;43.706;10.780;2023-01-19T03:44:17;6.70;96.70
45115;DHT22;30877;43.706;10.780;2023-01-19T03:46:46;6.70;96.70
45115;DHT22;30877;43.706;10.780;2023-01-19T03:49:15;6.80;96.70
45115;DHT22;30877;43.706;10.780;2023-01-19T03:51:44;6.70;96.70
45115;DHT22;30877;43.706;10.780;2023-01-19T03:54:13;6.60;96.70
45115;DHT22;30877;43.706;10.780;2023-01-19T03:56:41;6.70;96.70
45115;DHT22;30877;43.706;10.780;2023-01-19T03:59:13;6.80;96.70
45115;DHT22;30877;43.706;10.780;2023-01-19T04:01:44;6.80;96.70
45115;DHT22;30877;43.706;10.780;2023-01-19T04:04:13;6.90;96.70
45115;DHT22;30877;43.706;10.780;2023-01-19T04:06:43;6.80;96.70
45115;DHT22;30877;43.706;10.780;2023-01-19T04:09:11;6.70;96.70
45115;DHT22;30877;43.706;10.780;2023-01-19T04:11:40;6.70;96.70
45115;DHT22;30877;43.706;10.780;2023-01-19T04:14:08;6.80;96.70
45115;DHT22;30877;43.706;10.780;2023-01-19T04:16:38;6.80;96.70
45115;DHT22;30877;43.706;10.780;2023-01-19T04:19:07;6.90;96.70
45115;DHT22;30877;43.706;10.780;2023-01-19T04:21:35;6.90;96.70
45115;DHT22;30877;43.706;10.780;2023-01-19T04:24:04;6.90;96.70
45115;DHT22;30877;43.706;10.780;2023-01-19T04:26:33;6.90;96.70
45115;DHT22;30877;43.706;10.780;2023-01-19T04:29:01;6.90;96.70
45115;DHT22;30877;43.706;10.780;2023-01-19T04:31:30;6.90;96.70
45115;DHT22;30877;43.706;10.780;2023-01-19T04:34:00;6.90;96.70
45115;DHT22;30877;43.706;10.780;2023-01-19T04:36:28;7.00;96.70
45115;DHT22;30877;43.706;10.780;2023-01-19T04:38:57;7.00;96.70
45115;DHT22;30877;43.706;10.780;2023-01-19T04:41:25;7.00;96.70
45115;DHT22;30877;43.706;10.780;2023-01-19T04:43:57;6.90;96.70
45115;DHT22;30877;43.706;10.780;2023-01-19T04:46:25;7.00;96.70
45115;DHT22;30877;43.706;10.780;2023-01-19T04:48:54;7.00;96.70
45115;DHT22;30877;43.706;10.780;2023-01-19T04:51:24;6.90;96.70
45115;DHT22;30877;43.706;10.780;2023-01-19T04:53:52;6.80;96.70
45115;DHT22;30877;43.706;10.780;2023-01-19T04:56:21;6.70;96.70
45115;DHT22;30877;43.706;10.780;2023-01-19T04:58:49;6.80;96.70
45115;DHT22;30877;43.706;10.780;2023-01-19T05:01:18;6.90;96.70
45115;DHT22;30877;43.706;10.780;2023-01-19T05:03:46;7.00;96.70
45115;DHT22;30877;43.706;10.780;2023-01-19T05:06:14;7.00;96.70
45115;DHT22;30877;43.706;10.780;2023-01-19T05:08:45;7.00;96.70
45115;DHT22;30877;43.706;10.780;2023-01-19T05:11:13;7.00;96.70
45115;DHT22;30877;43.706;10.780;2023-01-19T05:13:42;7.00;96.70
45115;DHT22;30877;43.706;10.780;2023-01-19T05:16:10;7.00;96.70
45115;DHT22;30877;43.706;10.780;2023-01-19T05:18:41;7.00;96.70
45115;DHT22;30877;43.706;10.780;2023-01-19T05:21:09;6.90;96.70
45115;DHT22;30877;43.706;10.780;2023-01-19T05:23:38;7.00;96.70
45115;DHT22;30877;43.706;10.780;2023-01-19T05:26:08;7.00;96.70
45115;DHT22;30877;43.706;10.780;2023-01-19T05:28:37;7.00;96.70
45115;DHT22;30877;43.706;10.780;2023-01-19T05:31:06;7.00;96.70
45115;DHT22;30877;43.706;10.780;2023-01-19T05:33:34;7.00;96.70
45115;DHT22;30877;43.706;10.780;2023-01-19T05:36:03;7.00;96.70
45115;DHT22;30877;43.706;10.780;2023-01-19T05:38:31;7.00;96.70
45115;DHT22;30877;43.706;10.780;2023-01-19T05:41:02;7.00;96.70
45115;DHT22;30877;43.706;10.780;2023-01-19T05:43:33;7.00;96.70
45115;DHT22;30877;43.706;10.780;2023-01-19T05:46:02;7.00;96.70
45115;DHT22;30877;43.706;10.780;2023-01-19T05:48:31;7.00;96.70
45115;DHT22;30877;43.706;10.780;2023-01-19T05:51:00;6.90;96.70
45115;DHT22;30877;43.706;10.780;2023-01-19T05:53:29;6.90;96.70
45115;DHT22;30877;43.706;10.780;2023-01-19T05:56:00;6.90;96.70
45115;DHT22;30877;43.706;10.780;2023-01-19T05:58:31;6.90;96.70
45115;DHT22;30877;43.706;10.780;2023-01-19T06:01:05;6.60;96.70
45115;DHT22;30877;43.706;10.780;2023-01-19T06:03:35;6.40;96.70
45115;DHT22;30877;43.706;10.780;2023-01-19T06:06:04;6.40;96.70
45115;DHT22;30877;43.706;10.780;2023-01-19T06:08:33;6.40;96.70
45115;DHT22;30877;43.706;10.780;2023-01-19T06:11:01;6.30;96.70
45115;DHT22;30877;43.706;10.780;2023-01-19T06:13:34;6.30;96.70
45115;DHT22;30877;43.706;10.780;2023-01-19T06:16:03;6.20;96.70
45115;DHT22;30877;43.706;10.780;2023-01-19T06:18:31;6.10;96.70
45115;DHT22;30877;43.706;10.780;2023-01-19T06:21:03;6.10;96.70
45115;DHT22;30877;43.706;10.780;2023-01-19T06:23:33;6.10;96.70
45115;DHT22;30877;43.706;10.780;2023-01-19T06:26:02;6.00;96.70
45115;DHT22;30877;43.706;10.780;2023-01-19T06:28:32;5.90;96.70
45115;DHT22;30877;43.706;10.780;2023-01-19T06:31:01;5.70;96.70
45115;DHT22;30877;43.706;10.780;2023-01-19T06:33:31;5.60;96.70
45115;DHT22;30877;43.706;10.780;2023-01-19T06:35:59;5.50;96.70
45115;DHT22;30877;43.706;10.780;2023-01-19T06:38:28;5.40;96.70
45115;DHT22;30877;43.706;10.780;2023-01-19T06:40:57;5.40;96.70
45115;DHT22;30877;43.706;10.780;2023-01-19T06:43:26;5.40;96.70
45115;DHT22;30877;43.706;10.780;2023-01-19T06:45:56;5.60;96.70
45115;DHT22;30877;43.706;10.780;2023-01-19T06:48:25;5.60;96.70
45115;DHT22;30877;43.706;10.780;2023-01-19T06:50:53;5.70;96.70
45115;DHT22;30877;43.706;10.780;2023-01-19T06:53:25;5.80;96.70
45115;DHT22;30877;43.706;10.780;2023-01-19T06:55:58;5.80;96.70
45115;DHT22;30877;43.706;10.780;2023-01-19T06:58:28;5.90;96.70
45115;DHT22;30877;43.706;10.780;2023-01-19T07:01:02;5.80;96.70
45115;DHT22;30877;43.706;10.780;2023-01-19T07:03:31;5.90;96.70
45115;DHT22;30877;43.706;10.780;2023-01-19T07:06:00;6.00;96.70
45115;DHT22;30877;43.706;10.780;2023-01-19T07:08:34;5.90;96.70
45115;DHT22;30877;43.706;10.780;2023-01-19T07:11:04;5.90;96.70
45115;DHT22;30877;43.706;10.780;2023-01-19T07:13:54;5.90;96.70
45115;DHT22;30877;43.706;10.780;2023-01-19T07:16:24;5.90;96.70
45115;DHT22;30877;43.706;10.780;2023-01-19T07:18:53;6.00;96.70
45115;DHT22;30877;43.706;10.780;2023-01-19T07:21:22;6.10;96.70
45115;DHT22;30877;43.706;10.780;2023-01-19T07:23:52;6.10;96.70
45115;DHT22;30877;43.706;10.780;2023-01-19T07:26:21;6.20;96.70
45115;DHT22;30877;43.706;10.780;2023-01-19T07:28:52;6.20;96.70
45115;DHT22;30877;43.706;10.780;2023-01-19T07:31:20;6.30;96.70
45115;DHT22;30877;43.706;10.780;2023-01-19T07:33:50;6.30;96.70
45115;DHT22;30877;43.706;10.780;2023-01-19T07:36:20;6.30;96.70
45115;DHT22;30877;43.706;10.780;2023-01-19T07:38:48;6.40;96.70
45115;DHT22;30877;43.706;10.780;2023-01-19T07:41:17;6.40;96.70
45115;DHT22;30877;43.706;10.780;2023-01-19T07:43:45;6.50;96.70
45115;DHT22;30877;43.706;10.780;2023-01-19T07:46:14;6.50;96.70
45115;DHT22;30877;43.706;10.780;2023-01-19T07:48:43;6.60;96.70
45115;DHT22;30877;43.706;10.780;2023-01-19T07:51:13;6.70;96.70
45115;DHT22;30877;43.706;10.780;2023-01-19T07:53:48;6.70;96.70
45115;DHT22;30877;43.706;10.780;2023-01-19T07:56:16;6.70;96.70
45115;DHT22;30877;43.706;10.780;2023-01-19T07:58:45;6.60;96.70
45115;DHT22;30877;43.706;10.780;2023-01-19T08:01:13;6.60;96.70
45115;DHT22;30877;43.706;10.780;2023-01-19T08:03:42;6.60;96.70
45115;DHT22;30877;43.706;10.780;2023-01-19T08:06:19;6.70;96.70
45115;DHT22;30877;43.706;10.780;2023-01-19T08:08:48;6.70;96.70
45115;DHT22;30877;43.706;10.780;2023-01-19T08:11:17;6.70;96.70
45115;DHT22;30877;43.706;10.780;2023-01-19T08:13:46;6.80;96.70
45115;DHT22;30877;43.706;10.780;2023-01-19T08:16:14;6.80;96.70
45115;DHT22;30877;43.706;10.780;2023-01-19T08:18:43;6.90;96.70
45115;DHT22;30877;43.706;10.780;2023-01-19T08:21:13;7.00;96.70
45115;DHT22;30877;43.706;10.780;2023-01-19T08:23:41;7.00;96.70
45115;DHT22;30877;43.706;10.780;2023-01-19T08:26:20;7.10;96.70
45115;DHT22;30877;43.706;10.780;2023-01-19T08:28:51;7.10;96.70
45115;DHT22;30877;43.706;10.780;2023-01-19T08:31:19;7.10;96.70
45115;DHT22;30877;43.706;10.780;2023-01-19T08:33:51;7.20;96.70
45115;DHT22;30877;43.706;10.780;2023-01-19T08:36:22;7.30;96.70
45115;DHT22;30877;43.706;10.780;2023-01-19T08:38:52;7.30;96.70
45115;DHT22;30877;43.706;10.780;2023-01-19T08:41:21;7.30;96.70
45115;DHT22;30877;43.706;10.780;2023-01-19T08:43:49;7.40;96.70
45115;DHT22;30877;43.706;10.780;2023-01-19T08:46:18;7.40;96.70
45115;DHT22;30877;43.706;10.780;2023-01-19T08:48:49;7.40;96.70
45115;DHT22;30877;43.706;10.780;2023-01-19T08:51:17;7.40;96.70
45115;DHT22;30877;43.706;10.780;2023-01-19T08:53:48;7.50;96.70
45115;DHT22;30877;43.706;10.780;2023-01-19T08:56:17;7.60;96.70
45115;DHT22;30877;43.706;10.780;2023-01-19T08:58:47;7.60;96.70
45115;DHT22;30877;43.706;10.780;2023-01-19T09:01:34;7.70;96.70
45115;DHT22;30877;43.706;10.780;2023-01-19T09:04:04;7.70;96.70
45115;DHT22;30877;43.706;10.780;2023-01-19T09:06:33;7.80;96.70
45115;DHT22;30877;43.706;10.780;2023-01-19T09:09:03;7.90;96.70
45115;DHT22;30877;43.706;10.780;2023-01-19T09:11:32;7.90;96.70
45115;DHT22;30877;43.706;10.780;2023-01-19T09:14:02;8.00;96.70
45115;DHT22;30877;43.706;10.780;2023-01-19T09:16:31;8.10;96.70
45115;DHT22;30877;43.706;10.780;2023-01-19T09:18:59;8.20;96.70
45115;DHT22;30877;43.706;10.780;2023-01-19T09:21:28;8.30;96.70
45115;DHT22;30877;43.706;10.780;2023-01-19T09:23:57;8.40;96.70
45115;DHT22;30877;43.706;10.780;2023-01-19T09:26:27;8.40;96.70
45115;DHT22;30877;43.706;10.780;2023-01-19T09:28:55;8.50;96.70
45115;DHT22;30877;43.706;10.780;2023-01-19T09:31:24;8.50;96.70
45115;DHT22;30877;43.706;10.780;2023-01-19T09:33:52;8.50;96.70
45115;DHT22;30877;43.706;10.780;2023-01-19T09:36:21;8.60;96.70
45115;DHT22;30877;43.706;10.780;2023-01-19T09:38:49;8.70;96.70
45115;DHT22;30877;43.706;10.780;2023-01-19T09:41:20;8.70;96.70
45115;DHT22;30877;43.706;10.780;2023-01-19T09:43:55;8.80;96.70
45115;DHT22;30877;43.706;10.780;2023-01-19T09:46:28;8.80;96.70
45115;DHT22;30877;43.706;10.780;2023-01-19T09:49:00;8.80;96.70
45115;DHT22;30877;43.706;10.780;2023-01-19T09:51:35;8.80;96.70
45115;DHT22;30877;43.706;10.780;2023-01-19T09:54:10;8.90;96.70
45115;DHT22;30877;43.706;10.780;2023-01-19T09:56:43;9.00;96.70
45115;DHT22;30877;43.706;10.780;2023-01-19T09:59:24;9.00;96.70
45115;DHT22;30877;43.706;10.780;2023-01-19T10:02:11;9.00;96.70
45115;DHT22;30877;43.706;10.780;2023-01-19T10:04:43;9.00;96.70
45115;DHT22;30877;43.706;10.780;2023-01-19T10:07:32;9.10;96.70
45115;DHT22;30877;43.706;10.780;2023-01-19T10:10:08;9.10;96.70
45115;DHT22;30877;43.706;10.780;2023-01-19T10:12:47;9.20;96.70
45115;DHT22;30877;43.706;10.780;2023-01-19T10:15:30;9.10;96.70
45115;DHT22;30877;43.706;10.780;2023-01-19T10:18:10;9.00;96.70
45115;DHT22;30877;43.706;10.780;2023-01-19T10:20:43;9.10;96.70
45115;DHT22;30877;43.706;10.780;2023-01-19T10:23:31;9.00;96.70
45115;DHT22;30877;43.706;10.780;2023-01-19T10:26:07;9.00;96.70
45115;DHT22;30877;43.706;10.780;2023-01-19T10:28:38;9.00;96.70
45115;DHT22;30877;43.706;10.780;2023-01-19T10:31:08;9.10;96.70
45115;DHT22;30877;43.706;10.780;2023-01-19T10:33:37;9.20;96.70
45115;DHT22;30877;43.706;10.780;2023-01-19T10:36:15;9.20;96.70
45115;DHT22;30877;43.706;10.780;2023-01-19T10:38:44;9.10;96.70
45115;DHT22;30877;43.706;10.780;2023-01-19T10:41:17;9.00;96.70
45115;DHT22;30877;43.706;10.780;2023-01-19T10:43:47;8.90;96.70
45115;DHT22;30877;43.706;10.780;2023-01-19T10:46:20;8.90;96.70
45115;DHT22;30877;43.706;10.780;2023-01-19T10:48:50;8.80;96.70
45115;DHT22;30877;43.706;10.780;2023-01-19T10:51:20;8.80;96.70
45115;DHT22;30877;43.706;10.780;2023-01-19T10:53:57;8.70;96.70
45115;DHT22;30877;43.706;10.780;2023-01-19T10:56:30;8.70;96.70
45115;DHT22;30877;43.706;10.780;2023-01-19T10:59:00;8.60;96.70
45115;DHT22;30877;43.706;10.780;2023-01-19T11:01:31;8.60;96.70
45115;DHT22;30877;43.706;10.780;2023-01-19T11:04:24;8.60;96.70
45115;DHT22;30877;43.706;10.780;2023-01-19T11:07:11;8.60;96.70
45115;DHT22;30877;43.706;10.780;2023-01-19T11:09:40;8.60;96.70
45115;DHT22;30877;43.706;10.780;2023-01-19T11:12:19;8.70;96.70
45115;DHT22;30877;43.706;10.780;2023-01-19T11:14:49;8.80;96.70
45115;DHT22;30877;43.706;10.780;2023-01-19T11:17:22;8.80;96.70
45115;DHT22;30877;43.706;10.780;2023-01-19T11:19:57;8.90;96.70
45115;DHT22;30877;43.706;10.780;2023-01-19T11:22:28;8.90;96.70
45115;DHT22;30877;43.706;10.780;2023-01-19T11:25:02;8.90;96.70
45115;DHT22;30877;43.706;10.780;2023-01-19T11:27:34;8.80;96.70
45115;DHT22;30877;43.706;10.780;2023-01-19T11:30:06;8.80;96.70
45115;DHT22;30877;43.706;10.780;2023-01-19T11:32:38;8.70;96.70
45115;DHT22;30877;43.706;10.780;2023-01-19T11:35:36;8.70;96.70
45115;DHT22;30877;43.706;10.780;2023-01-19T11:38:16;8.60;96.70
45115;DHT22;30877;43.706;10.780;2023-01-19T11:40:55;8.60;96.70
45115;DHT22;30877;43.706;10.780;2023-01-19T11:43:27;8.50;96.70
45115;DHT22;30877;43.706;10.780;2023-01-19T11:46:11;8.50;96.70
45115;DHT22;30877;43.706;10.780;2023-01-19T11:48:45;8.50;96.70
45115;DHT22;30877;43.706;10.780;2023-01-19T11:51:16;8.40;96.70
45115;DHT22;30877;43.706;10.780;2023-01-19T11:53:51;8.50;96.70
45115;DHT22;30877;43.706;10.780;2023-01-19T11:56:22;8.50;96.70
45115;DHT22;30877;43.706;10.780;2023-01-19T11:58:52;8.50;96.70
45115;DHT22;30877;43.706;10.780;2023-01-19T12:01:22;8.50;96.70
45115;DHT22;30877;43.706;10.780;2023-01-19T12:03:57;8.50;96.70
45115;DHT22;30877;43.706;10.780;2023-01-19T12:06:30;8.50;96.70
45115;DHT22;30877;43.706;10.780;2023-01-19T12:09:04;8.40;96.70
45115;DHT22;30877;43.706;10.780;2023-01-19T12:11:36;8.20;96.70
45115;DHT22;30877;43.706;10.780;2023-01-19T12:14:08;8.10;96.70
45115;DHT22;30877;43.706;10.780;2023-01-19T12:16:43;7.90;96.70
45115;DHT22;30877;43.706;10.780;2023-01-19T12:19:15;7.90;96.70
45115;DHT22;30877;43.706;10.780;2023-01-19T12:21:45;7.90;96.70
45115;DHT22;30877;43.706;10.780;2023-01-19T12:24:22;7.80;96.70
45115;DHT22;30877;43.706;10.780;2023-01-19T12:26:57;7.70;96.70
45115;DHT22;30877;43.706;10.780;2023-01-19T12:29:30;7.70;96.70
45115;DHT22;30877;43.706;10.780;2023-01-19T12:32:28;7.60;96.70
45115;DHT22;30877;43.706;10.780;2023-01-19T12:35:01;7.60;96.70
45115;DHT22;30877;43.706;10.780;2023-01-19T12:37:39;7.40;96.70
45115;DHT22;30877;43.706;10.780;2023-01-19T12:40:27;7.40;96.70
45115;DHT22;30877;43.706;10.780;2023-01-19T12:43:00;7.40;96.70
45115;DHT22;30877;43.706;10.780;2023-01-19T12:45:32;7.30;96.70
45115;DHT22;30877;43.706;10.780;2023-01-19T12:48:02;7.30;96.70
45115;DHT22;30877;43.706;10.780;2023-01-19T12:50:35;7.20;96.70
45115;DHT22;30877;43.706;10.780;2023-01-19T12:53:17;7.10;96.70
45115;DHT22;30877;43.706;10.780;2023-01-19T12:55:57;6.80;96.70
45115;DHT22;30877;43.706;10.780;2023-01-19T12:58:26;6.60;96.70
45115;DHT22;30877;43.706;10.780;2023-01-19T13:01:13;6.50;96.70
45115;DHT22;30877;43.706;10.780;2023-01-19T13:03:46;6.40;96.70
45115;DHT22;30877;43.706;10.780;2023-01-19T13:09:32;6.40;96.70
45115;DHT22;30877;43.706;10.780;2023-01-19T13:12:18;6.40;96.70
45115;DHT22;30877;43.706;10.780;2023-01-19T13:14:47;6.30;96.70
45115;DHT22;30877;43.706;10.780;2023-01-19T13:17:30;6.20;96.70
45115;DHT22;30877;43.706;10.780;2023-01-19T13:26:05;6.60;96.70
45115;DHT22;30877;43.706;10.780;2023-01-19T13:28:40;6.70;96.70
45115;DHT22;30877;43.706;10.780;2023-01-19T13:31:11;6.70;96.70
45115;DHT22;30877;43.706;10.780;2023-01-19T13:33:46;6.70;96.70
45115;DHT22;30877;43.706;10.780;2023-01-19T13:36:28;6.90;96.70
45115;DHT22;30877;43.706;10.780;2023-01-19T13:38:59;6.90;96.70
45115;DHT22;30877;43.706;10.780;2023-01-19T13:41:34;6.90;96.70
45115;DHT22;30877;43.706;10.780;2023-01-19T13:44:07;6.80;96.70
45115;DHT22;30877;43.706;10.780;2023-01-19T13:46:37;6.80;96.70
45115;DHT22;30877;43.706;10.780;2023-01-19T13:49:19;6.90;96.70
45115;DHT22;30877;43.706;10.780;2023-01-19T13:52:10;6.90;96.70
45115;DHT22;30877;43.706;10.780;2023-01-19T13:54:47;6.90;96.70
45115;DHT22;30877;43.706;10.780;2023-01-19T13:57:26;6.90;96.70
45115;DHT22;30877;43.706;10.780;2023-01-19T14:00:04;7.00;96.70
45115;DHT22;30877;43.706;10.780;2023-01-19T14:02:40;7.10;96.70
45115;DHT22;30877;43.706;10.780;2023-01-19T14:05:15;7.10;96.70
45115;DHT22;30877;43.706;10.780;2023-01-19T14:07:53;7.20;96.70
45115;DHT22;30877;43.706;10.780;2023-01-19T14:10:26;7.40;96.70
45115;DHT22;30877;43.706;10.780;2023-01-19T14:13:01;7.40;96.70
45115;DHT22;30877;43.706;10.780;2023-01-19T14:15:32;7.50;96.70
45115;DHT22;30877;43.706;10.780;2023-01-19T14:21:03;7.60;96.70
45115;DHT22;30877;43.706;10.780;2023-01-19T14:23:39;7.50;96.70
45115;DHT22;30877;43.706;10.780;2023-01-19T14:26:37;7.60;96.70
45115;DHT22;30877;43.706;10.780;2023-01-19T14:29:21;7.60;96.70
45115;DHT22;30877;43.706;10.780;2023-01-19T14:31:51;7.50;96.70
45115;DHT22;30877;43.706;10.780;2023-01-19T14:34:31;7.60;96.70
45115;DHT22;30877;43.706;10.780;2023-01-19T14:37:00;7.60;96.70
45115;DHT22;30877;43.706;10.780;2023-01-19T14:39:30;7.70;96.70
45115;DHT22;30877;43.706;10.780;2023-01-19T14:42:02;7.70;96.70
45115;DHT22;30877;43.706;10.780;2023-01-19T14:44:35;7.70;96.70
45115;DHT22;30877;43.706;10.780;2023-01-19T14:47:05;7.70;96.70
45115;DHT22;30877;43.706;10.780;2023-01-19T14:49:36;7.60;96.70
45115;DHT22;30877;43.706;10.780;2023-01-19T14:52:14;7.60;96.70
45115;DHT22;30877;43.706;10.780;2023-01-19T14:54:45;7.50;96.70
45115;DHT22;30877;43.706;10.780;2023-01-19T14:57:15;7.50;96.70
45115;DHT22;30877;43.706;10.780;2023-01-19T14:59:44;7.60;96.70
45115;DHT22;30877;43.706;10.780;2023-01-19T15:02:16;7.70;96.70
45115;DHT22;30877;43.706;10.780;2023-01-19T15:04:48;7.70;96.70
45115;DHT22;30877;43.706;10.780;2023-01-19T15:07:22;7.70;96.70
45115;DHT22;30877;43.706;10.780;2023-01-19T15:09:51;7.60;96.70
45115;DHT22;30877;43.706;10.780;2023-01-19T15:12:21;7.50;96.70
45115;DHT22;30877;43.706;10.780;2023-01-19T15:14:55;7.50;96.70
45115;DHT22;30877;43.706;10.780;2023-01-19T15:17:23;7.50;96.70
45115;DHT22;30877;43.706;10.780;2023-01-19T15:19:55;7.50;96.70
45115;DHT22;30877;43.706;10.780;2023-01-19T15:22:24;7.50;96.70
45115;DHT22;30877;43.706;10.780;2023-01-19T15:24:55;7.40;96.70
45115;DHT22;30877;43.706;10.780;2023-01-19T15:27:26;7.40;96.70
45115;DHT22;30877;43.706;10.780;2023-01-19T15:29:56;7.40;96.70
45115;DHT22;30877;43.706;10.780;2023-01-19T15:32:26;7.30;96.70
45115;DHT22;30877;43.706;10.780;2023-01-19T15:34:54;7.40;96.70
45115;DHT22;30877;43.706;10.780;2023-01-19T15:37:22;7.30;96.70
45115;DHT22;30877;43.706;10.780;2023-01-19T15:39:52;7.30;96.70
45115;DHT22;30877;43.706;10.780;2023-01-19T15:42:20;7.30;96.70
45115;DHT22;30877;43.706;10.780;2023-01-19T15:44:49;7.30;96.70
45115;DHT22;30877;43.706;10.780;2023-01-19T15:47:19;7.30;96.70
45115;DHT22;30877;43.706;10.780;2023-01-19T15:49:47;7.30;96.70
45115;DHT22;30877;43.706;10.780;2023-01-19T15:52:16;7.30;96.70
45115;DHT22;30877;43.706;10.780;2023-01-19T15:54:44;7.20;96.70
45115;DHT22;30877;43.706;10.780;2023-01-19T15:57:12;7.20;96.70
45115;DHT22;30877;43.706;10.780;2023-01-19T15:59:41;7.10;96.70
45115;DHT22;30877;43.706;10.780;2023-01-19T16:02:12;7.10;96.70
45115;DHT22;30877;43.706;10.780;2023-01-19T16:04:42;7.10;96.70
45115;DHT22;30877;43.706;10.780;2023-01-19T16:07:15;7.00;96.70
45115;DHT22;30877;43.706;10.780;2023-01-19T16:09:43;7.00;96.70
45115;DHT22;30877;43.706;10.780;2023-01-19T16:12:11;6.90;96.70